Sedillo, New Mexico
Current Conditions -  °F | °C
As of 9:52 AM on Thursday 23 Oct 2014 (Local Time) from KABQ Reporting Station
Clear Clear  
Wind Chill: 59°   Ceiling: Unl
Heat Index: 59°   Visibility: 10mi
Dew Point: 42°   Wind: 5mph
Humidity: 53%   Direction: 300°WNW
Pressure: 30.3"   Gusts: NA
Location:  34.9842°N, 106.322°W
Report Text: KABQ 231552Z 30004KT 10SM CLR 15/06 A3030 RMK AO2 SLP210 T01500056
Loading
Personal Weather Stations






























Interactive Weather Map New forecast layout! Learn more

10-Day Weather Forecast

Advertisements
Track Severe Weather on mobile